createdAt,value
2023-04-11T00:00:58.693Z,12.10
2023-04-11T00:06:05.598Z,12.00
2023-04-11T00:11:09.018Z,12.00
2023-04-11T00:16:12.653Z,12.00
2023-04-11T00:21:17.816Z,11.90
2023-04-11T00:26:22.404Z,11.80
2023-04-11T00:31:25.907Z,11.80
2023-04-11T00:36:32.022Z,11.70
2023-04-11T00:41:35.757Z,11.60
2023-04-11T00:46:43.165Z,11.60
2023-04-11T00:51:49.311Z,11.60
2023-04-11T00:56:53.363Z,11.50
2023-04-11T01:01:57.158Z,11.50
2023-04-11T01:07:06.544Z,11.40
2023-04-11T01:12:11.640Z,11.40
2023-04-11T01:17:15.389Z,11.40
2023-04-11T01:22:23.871Z,11.30
2023-04-11T01:27:31.060Z,11.30
2023-04-11T01:32:34.672Z,11.20
2023-04-11T01:37:38.343Z,11.20
2023-04-11T01:42:43.260Z,11.10
2023-04-11T01:47:47.940Z,11.10
2023-04-11T01:52:53.705Z,11.10
2023-04-11T01:57:58.409Z,11.10
2023-04-11T02:03:02.105Z,11.00
2023-04-11T02:08:06.210Z,11.00
2023-04-11T02:13:10.941Z,11.00
2023-04-11T02:18:14.635Z,10.90
2023-04-11T02:23:18.046Z,10.90
2023-04-11T02:28:23.465Z,10.80
2023-04-11T02:33:27.112Z,10.80
2023-04-11T02:38:30.865Z,10.80
2023-04-11T02:43:35.631Z,10.70
2023-04-11T02:48:39.245Z,10.70
2023-04-11T02:53:42.914Z,10.70
2023-04-11T02:58:47.687Z,10.70
2023-04-11T03:03:51.317Z,10.70
2023-04-11T03:08:56.052Z,10.60
2023-04-11T03:14:01.452Z,10.50
2023-04-11T03:19:05.965Z,10.50
2023-04-11T03:24:09.829Z,10.50
2023-04-11T03:29:14.981Z,10.40
2023-04-11T03:34:19.049Z,10.40
2023-04-11T03:39:22.819Z,10.30
2023-04-11T03:44:27.559Z,10.40
2023-04-11T03:49:31.063Z,10.40
2023-04-11T03:54:34.612Z,10.30
2023-04-11T03:59:39.639Z,10.30
2023-04-11T04:04:43.513Z,10.30
2023-04-11T04:09:47.449Z,10.30
2023-04-11T04:14:53.076Z,10.30
2023-04-11T04:19:56.467Z,10.30
2023-04-11T04:24:59.827Z,10.30
2023-04-11T04:30:04.897Z,10.30
2023-04-11T04:35:09.109Z,10.20
2023-04-11T04:40:14.355Z,10.20
2023-04-11T04:45:19.154Z,10.20
2023-04-11T04:50:22.679Z,10.20
2023-04-11T04:55:27.121Z,10.20
2023-04-11T05:00:33.615Z,10.20
2023-04-11T05:05:37.053Z,10.20
2023-04-11T05:10:40.819Z,10.20
2023-04-11T05:15:50.231Z,10.20
2023-04-11T05:20:53.684Z,10.20
2023-04-11T05:25:57.078Z,10.30
2023-04-11T05:31:02.256Z,10.30
2023-04-11T05:36:06.728Z,10.30
2023-04-11T05:41:10.336Z,10.30
2023-04-11T05:46:15.139Z,10.40
2023-04-11T05:51:18.521Z,10.40
2023-04-11T05:56:22.255Z,10.50
2023-04-11T06:01:27.047Z,10.50
2023-04-11T06:06:31.593Z,10.50
2023-04-11T06:11:35.209Z,10.50
2023-04-11T06:16:40.051Z,10.50
2023-04-11T06:21:43.478Z,10.60
2023-04-11T06:26:47.152Z,10.60
2023-04-11T06:31:51.884Z,10.70
2023-04-11T06:36:55.312Z,10.70
2023-04-11T06:41:58.725Z,10.80
2023-04-11T06:47:03.605Z,10.80
2023-04-11T06:52:07.212Z,10.90
2023-04-11T06:57:11.214Z,10.90
2023-04-11T07:02:16.864Z,10.90
2023-04-11T07:07:20.763Z,10.90
2023-04-11T07:12:24.671Z,11.00
2023-04-11T07:17:29.380Z,11.00
2023-04-11T07:22:33.025Z,11.10
2023-04-11T07:27:36.749Z,11.10
2023-04-11T07:32:41.544Z,11.20
2023-04-11T07:37:45.836Z,11.20
2023-04-11T07:42:49.215Z,11.30
2023-04-11T07:47:53.996Z,11.40
2023-04-11T07:52:57.766Z,11.40
2023-04-11T07:58:01.132Z,11.50
2023-04-11T08:03:08.801Z,11.50
2023-04-11T08:08:12.490Z,11.60
2023-04-11T08:13:16.214Z,11.70
2023-04-11T08:18:21.693Z,11.80
2023-04-11T08:23:25.139Z,11.90
2023-04-11T08:28:28.611Z,11.90
2023-04-11T08:33:34.544Z,12.00
2023-04-11T08:38:38.704Z,12.10
2023-04-11T08:43:43.882Z,12.20
2023-04-11T08:48:48.877Z,12.30
2023-04-11T08:53:54.742Z,12.40
2023-04-11T08:58:58.359Z,12.50
2023-04-11T09:04:05.641Z,12.60
2023-04-11T09:09:09.743Z,12.70
2023-04-11T09:14:13.677Z,12.80
2023-04-11T09:19:26.187Z,12.90
2023-04-11T09:24:30.938Z,13.00
2023-04-11T09:29:40.307Z,13.10
2023-04-11T09:34:45.320Z,13.30
2023-04-11T09:39:59.253Z,13.40
2023-04-11T09:45:03.895Z,13.60
2023-04-11T09:50:09.508Z,13.70
2023-04-11T09:55:16.403Z,13.90
2023-04-11T10:00:22.117Z,14.00
2023-04-11T10:05:28.924Z,14.10
2023-04-11T10:10:32.666Z,14.20
2023-04-11T10:15:36.079Z,14.30
2023-04-11T10:20:46.131Z,14.30
2023-04-11T10:25:58.482Z,14.30
2023-04-11T10:31:04.594Z,14.40
2023-04-11T10:36:11.438Z,14.50
2023-04-11T10:41:31.808Z,14.50
2023-04-11T10:46:46.258Z,14.50
2023-04-11T10:51:51.041Z,14.60
2023-04-11T10:56:57.877Z,14.60
2023-04-11T11:02:02.397Z,14.50
2023-04-11T11:07:13.306Z,14.50
2023-04-11T11:12:18.020Z,14.30
2023-04-11T11:17:23.690Z,14.10
2023-04-11T11:22:28.724Z,14.00
2023-04-11T11:27:32.333Z,13.80
2023-04-11T11:32:36.241Z,13.30
2023-04-11T11:37:41.913Z,13.00
2023-04-11T11:42:45.531Z,12.50
2023-04-11T11:47:50.805Z,12.30
2023-04-11T11:52:56.674Z,11.90
2023-04-11T11:58:02.296Z,11.70
2023-04-11T12:03:06.964Z,11.50
2023-04-11T12:08:12.363Z,11.30
2023-04-11T12:13:20.669Z,11.10
2023-04-11T12:18:25.503Z,10.90
2023-04-11T12:23:30.373Z,10.70
2023-04-11T12:28:33.822Z,10.70
2023-04-11T12:33:37.492Z,10.70
2023-04-11T12:38:42.301Z,10.60
2023-04-11T12:43:45.964Z,10.50
2023-04-11T12:48:49.338Z,10.50
2023-04-11T12:53:54.144Z,10.60
2023-04-11T12:58:57.902Z,10.70
2023-04-11T13:04:01.959Z,10.80
2023-04-11T13:09:07.784Z,10.80
2023-04-11T13:14:11.672Z,10.90
2023-04-11T13:19:15.125Z,10.90
2023-04-11T13:24:20.031Z,11.10
2023-04-11T13:29:23.404Z,11.30
2023-04-11T13:34:27.279Z,11.40
2023-04-11T13:39:31.998Z,11.40
2023-04-11T13:44:35.450Z,11.40
2023-04-11T13:49:38.865Z,11.30
2023-04-11T13:54:43.607Z,11.20
2023-04-11T13:59:47.053Z,11.20
2023-04-11T14:04:51.047Z,11.30
2023-04-11T14:09:55.846Z,11.30
2023-04-11T14:14:59.259Z,11.30
2023-04-11T14:20:05.508Z,11.30
2023-04-11T14:25:11.586Z,11.30
2023-04-11T14:30:15.232Z,11.40
2023-04-11T14:35:18.611Z,11.40
2023-04-11T14:40:23.587Z,11.40
2023-04-11T14:45:27.033Z,11.50
2023-04-11T14:50:30.639Z,11.50
2023-04-11T14:55:35.409Z,11.60
2023-04-11T15:00:38.822Z,11.80
2023-04-11T15:05:42.286Z,11.80
2023-04-11T15:10:49.570Z,11.90
2023-04-11T15:15:53.529Z,12.10
2023-04-11T15:20:58.986Z,12.20
2023-04-11T15:26:04.746Z,12.30
2023-04-11T15:31:10.044Z,12.30
2023-04-11T15:36:13.592Z,12.20
2023-04-11T15:41:18.400Z,12.10
2023-04-11T15:46:22.087Z,11.80
2023-04-11T15:51:27.258Z,11.40
2023-04-11T15:56:33.290Z,11.20
2023-04-11T16:01:36.905Z,11.10
2023-04-11T16:06:40.596Z,11.10
2023-04-11T16:11:45.397Z,11.30
2023-04-11T16:16:48.842Z,11.90
2023-04-11T16:21:52.791Z,12.10
2023-04-11T16:26:58.422Z,12.70
2023-04-11T16:32:02.368Z,12.90
2023-04-11T16:37:06.508Z,13.00
2023-04-11T16:42:11.259Z,13.00
2023-04-11T16:47:14.703Z,12.90
2023-04-11T16:52:18.097Z,13.00
2023-04-11T16:57:23.085Z,12.80
2023-04-11T17:02:26.665Z,12.50
2023-04-11T17:07:30.208Z,12.30
2023-04-11T17:12:34.927Z,12.10
2023-04-11T17:17:38.352Z,12.00
2023-04-11T17:22:44.374Z,11.80
2023-04-11T17:27:49.455Z,11.60
2023-04-11T17:32:55.385Z,11.40
2023-04-11T17:37:59.142Z,11.30
2023-04-11T17:43:04.304Z,11.10
2023-04-11T17:48:08.808Z,10.90
2023-04-11T17:53:12.643Z,10.70
2023-04-11T17:58:17.896Z,10.50
2023-04-11T18:03:22.352Z,10.30
2023-04-11T18:08:46.833Z,10.20
2023-04-11T18:13:52.064Z,10.20
2023-04-11T18:18:55.505Z,10.20
2023-04-11T18:23:59.267Z,9.90
2023-04-11T18:29:04.343Z,9.70
2023-04-11T18:34:09.139Z,9.50
2023-04-11T18:39:12.845Z,9.30
2023-04-11T18:44:17.675Z,9.20
2023-04-11T18:49:21.639Z,9.20
2023-04-11T18:54:25.049Z,9.20
2023-04-11T18:59:31.410Z,9.10
2023-04-11T19:04:37.594Z,9.00
2023-04-11T19:09:41.362Z,9.10
2023-04-11T19:14:46.121Z,9.10
2023-04-11T19:19:49.814Z,9.20
2023-04-11T19:24:53.574Z,9.20
2023-04-11T19:29:58.342Z,9.10
2023-04-11T19:35:02.054Z,9.00
2023-04-11T19:40:07.526Z,9.00
2023-04-11T19:45:12.886Z,8.80
2023-04-11T19:50:16.580Z,8.80
2023-04-11T19:55:20.055Z,8.80
2023-04-11T20:00:26.655Z,8.80
2023-04-11T20:05:32.161Z,8.70
2023-04-11T20:10:37.313Z,8.60
2023-04-11T20:15:42.320Z,8.50
2023-04-11T20:20:47.043Z,8.50
2023-04-11T20:25:50.842Z,8.50
2023-04-11T20:30:55.927Z,8.40
2023-04-11T20:35:59.654Z,8.40
2023-04-11T20:41:04.014Z,8.40
2023-04-11T20:46:09.294Z,8.40
2023-04-11T20:51:14.196Z,8.40
2023-04-11T20:56:18.020Z,8.40
2023-04-11T21:01:22.782Z,8.30
2023-04-11T21:06:26.796Z,8.20
2023-04-11T21:11:30.281Z,8.20
2023-04-11T21:16:35.201Z,8.20
2023-04-11T21:21:40.392Z,8.20
2023-04-11T21:26:43.957Z,8.20
2023-04-11T21:31:48.765Z,8.20
2023-04-11T21:36:52.194Z,8.20
2023-04-11T21:41:55.588Z,8.20
2023-04-11T21:47:00.700Z,8.30
2023-04-11T21:52:04.147Z,8.30
2023-04-11T21:57:07.586Z,8.30
2023-04-11T22:02:12.491Z,8.20
2023-04-11T22:07:18.007Z,8.10
2023-04-11T22:12:21.390Z,8.00
2023-04-11T22:17:26.236Z,7.90
2023-04-11T22:22:30.210Z,7.80
2023-04-11T22:27:35.346Z,7.70
2023-04-11T22:32:40.926Z,7.60
2023-04-11T22:37:45.449Z,7.50
2023-04-11T22:42:50.584Z,7.50
2023-04-11T22:48:00.087Z,7.40
2023-04-11T22:53:03.727Z,7.40
2023-04-11T22:58:07.743Z,7.30
2023-04-11T23:03:14.377Z,7.30
2023-04-11T23:08:18.181Z,7.40
2023-04-11T23:13:22.352Z,7.40
2023-04-11T23:18:27.094Z,7.40
2023-04-11T23:23:30.538Z,7.40
2023-04-11T23:28:35.285Z,7.30
2023-04-11T23:33:41.026Z,7.20
2023-04-11T23:38:45.021Z,7.20
2023-04-11T23:43:48.483Z,7.10
2023-04-11T23:48:54.913Z,7.10
2023-04-11T23:53:58.473Z,7.10
2023-04-11T23:59:01.962Z,7.10
